Comfort, Texas
Current Conditions -  °F | °C
As of 11:15 PM on Wednesday 22 Oct 2014 (Local Time) from KERV Reporting Station
Light Rain Light Rain  
Wind Chill: 63°   Ceiling: Unl
Heat Index: 63°   Visibility: 7mi
Dew Point: 61°   Wind: 3mph
Humidity: 94%   Direction: 30°NNE
Pressure: 30.12"   Gusts: NA
Location:  29.97°N, 98.91°W
Report Text: KERV 230415Z AUTO 03003KT 7SM -RA SCT008 17/16 A3012 RMK AO2 P0001 T01710161
Loading
Personal Weather Stations






























Interactive Weather Map
Tropical Storm Tracking
New forecast layout! Learn more

10-Day Weather Forecast

Advertisements
Track Severe Weather on mobile